sensor_id;sensor_type;location;lat;lon;timestamp;P1;durP1;ratioP1;P2;durP2;ratioP2
22282;SDS011;11310;51.528;21.204;2023-02-02T00:01:28;9.40;;;4.20;;
22282;SDS011;11310;51.528;21.204;2023-02-02T00:03:57;8.52;;;3.63;;
22282;SDS011;11310;51.528;21.204;2023-02-02T00:06:27;9.40;;;3.45;;
22282;SDS011;11310;51.528;21.204;2023-02-02T00:08:58;7.90;;;3.25;;
22282;SDS011;11310;51.528;21.204;2023-02-02T00:11:28;11.00;;;3.58;;
22282;SDS011;11310;51.528;21.204;2023-02-02T00:13:56;9.98;;;3.88;;
22282;SDS011;11310;51.528;21.204;2023-02-02T00:16:34;10.10;;;4.20;;
22282;SDS011;11310;51.528;21.204;2023-02-02T00:19:05;9.05;;;3.80;;
22282;SDS011;11310;51.528;21.204;2023-02-02T00:21:35;10.30;;;3.58;;
22282;SDS011;11310;51.528;21.204;2023-02-02T00:24:05;9.45;;;3.47;;
22282;SDS011;11310;51.528;21.204;2023-02-02T00:26:34;8.70;;;3.77;;
22282;SDS011;11310;51.528;21.204;2023-02-02T00:29:04;8.23;;;3.20;;
22282;SDS011;11310;51.528;21.204;2023-02-02T00:31:35;10.15;;;4.05;;
22282;SDS011;11310;51.528;21.204;2023-02-02T00:34:03;7.55;;;3.17;;
22282;SDS011;11310;51.528;21.204;2023-02-02T00:36:32;10.23;;;3.75;;
22282;SDS011;11310;51.528;21.204;2023-02-02T00:39:00;9.38;;;3.53;;
22282;SDS011;11310;51.528;21.204;2023-02-02T00:41:30;6.70;;;3.08;;
22282;SDS011;11310;51.528;21.204;2023-02-02T00:43:58;5.57;;;2.92;;
22282;SDS011;11310;51.528;21.204;2023-02-02T00:46:56;7.72;;;3.30;;
22282;SDS011;11310;51.528;21.204;2023-02-02T00:49:25;8.10;;;3.00;;
22282;SDS011;11310;51.528;21.204;2023-02-02T00:51:53;7.47;;;3.20;;
22282;SDS011;11310;51.528;21.204;2023-02-02T00:54:22;7.47;;;3.10;;
22282;SDS011;11310;51.528;21.204;2023-02-02T00:56:51;5.57;;;2.75;;
22282;SDS011;11310;51.528;21.204;2023-02-02T00:59:20;10.20;;;3.50;;
22282;SDS011;11310;51.528;21.204;2023-02-02T01:01:48;7.65;;;3.20;;
22282;SDS011;11310;51.528;21.204;2023-02-02T01:04:17;6.50;;;3.00;;
22282;SDS011;11310;51.528;21.204;2023-02-02T01:06:46;7.05;;;2.92;;
22282;SDS011;11310;51.528;21.204;2023-02-02T01:09:14;9.55;;;3.15;;
22282;SDS011;11310;51.528;21.204;2023-02-02T01:11:43;10.35;;;3.20;;
22282;SDS011;11310;51.528;21.204;2023-02-02T01:14:13;6.70;;;2.88;;
22282;SDS011;11310;51.528;21.204;2023-02-02T01:16:42;7.15;;;3.25;;
22282;SDS011;11310;51.528;21.204;2023-02-02T01:19:11;7.22;;;2.85;;
22282;SDS011;11310;51.528;21.204;2023-02-02T01:21:41;6.75;;;3.33;;
22282;SDS011;11310;51.528;21.204;2023-02-02T01:24:09;6.35;;;2.92;;
22282;SDS011;11310;51.528;21.204;2023-02-02T01:26:38;9.30;;;3.53;;
22282;SDS011;11310;51.528;21.204;2023-02-02T01:29:07;6.78;;;3.30;;
22282;SDS011;11310;51.528;21.204;2023-02-02T01:31:37;8.32;;;3.15;;
22282;SDS011;11310;51.528;21.204;2023-02-02T01:34:06;7.43;;;3.60;;
22282;SDS011;11310;51.528;21.204;2023-02-02T01:36:35;7.38;;;3.20;;
22282;SDS011;11310;51.528;21.204;2023-02-02T01:39:04;10.00;;;3.55;;
22282;SDS011;11310;51.528;21.204;2023-02-02T01:41:32;6.25;;;3.55;;
22282;SDS011;11310;51.528;21.204;2023-02-02T01:44:02;9.45;;;3.60;;
22282;SDS011;11310;51.528;21.204;2023-02-02T01:46:32;9.43;;;3.55;;
22282;SDS011;11310;51.528;21.204;2023-02-02T01:49:05;6.90;;;3.43;;
22282;SDS011;11310;51.528;21.204;2023-02-02T01:51:39;6.05;;;2.97;;
22282;SDS011;11310;51.528;21.204;2023-02-02T01:54:12;7.45;;;3.22;;
22282;SDS011;11310;51.528;21.204;2023-02-02T01:56:44;7.30;;;3.40;;
22282;SDS011;11310;51.528;21.204;2023-02-02T01:59:18;6.68;;;3.00;;
22282;SDS011;11310;51.528;21.204;2023-02-02T02:01:47;8.07;;;3.60;;
22282;SDS011;11310;51.528;21.204;2023-02-02T02:04:17;7.57;;;3.35;;
22282;SDS011;11310;51.528;21.204;2023-02-02T02:06:45;7.20;;;3.30;;
22282;SDS011;11310;51.528;21.204;2023-02-02T02:09:19;5.65;;;2.97;;
22282;SDS011;11310;51.528;21.204;2023-02-02T02:11:47;9.20;;;3.35;;
22282;SDS011;11310;51.528;21.204;2023-02-02T02:14:16;6.47;;;3.30;;
22282;SDS011;11310;51.528;21.204;2023-02-02T02:17:06;8.10;;;3.22;;
22282;SDS011;11310;51.528;21.204;2023-02-02T02:19:57;7.70;;;3.28;;
22282;SDS011;11310;51.528;21.204;2023-02-02T02:23:01;6.50;;;3.15;;
22282;SDS011;11310;51.528;21.204;2023-02-02T02:26:24;6.82;;;3.40;;
22282;SDS011;11310;51.528;21.204;2023-02-02T02:29:21;8.23;;;3.20;;
22282;SDS011;11310;51.528;21.204;2023-02-02T02:32:11;8.07;;;2.97;;
22282;SDS011;11310;51.528;21.204;2023-02-02T02:34:51;9.50;;;3.40;;
22282;SDS011;11310;51.528;21.204;2023-02-02T02:37:32;5.57;;;2.70;;
22282;SDS011;11310;51.528;21.204;2023-02-02T02:40:08;8.48;;;3.08;;
22282;SDS011;11310;51.528;21.204;2023-02-02T02:42:41;5.90;;;2.97;;
22282;SDS011;11310;51.528;21.204;2023-02-02T02:45:13;5.57;;;2.90;;
22282;SDS011;11310;51.528;21.204;2023-02-02T02:47:45;8.05;;;3.20;;
22282;SDS011;11310;51.528;21.204;2023-02-02T02:50:15;7.28;;;3.08;;
22282;SDS011;11310;51.528;21.204;2023-02-02T02:52:44;6.43;;;2.90;;
22282;SDS011;11310;51.528;21.204;2023-02-02T02:55:15;8.77;;;2.42;;
22282;SDS011;11310;51.528;21.204;2023-02-02T02:57:46;6.55;;;2.75;;
22282;SDS011;11310;51.528;21.204;2023-02-02T03:00:29;8.00;;;2.75;;
22282;SDS011;11310;51.528;21.204;2023-02-02T03:03:10;6.78;;;2.53;;
22282;SDS011;11310;51.528;21.204;2023-02-02T03:05:50;7.10;;;3.13;;
22282;SDS011;11310;51.528;21.204;2023-02-02T03:08:24;5.32;;;2.65;;
22282;SDS011;11310;51.528;21.204;2023-02-02T03:10:58;7.50;;;3.03;;
22282;SDS011;11310;51.528;21.204;2023-02-02T03:15:58;8.32;;;2.75;;
22282;SDS011;11310;51.528;21.204;2023-02-02T03:18:29;10.13;;;3.15;;
22282;SDS011;11310;51.528;21.204;2023-02-02T03:21:00;5.68;;;2.70;;
22282;SDS011;11310;51.528;21.204;2023-02-02T03:23:30;8.23;;;3.47;;
22282;SDS011;11310;51.528;21.204;2023-02-02T03:25:58;5.47;;;2.83;;
22282;SDS011;11310;51.528;21.204;2023-02-02T03:28:29;8.05;;;2.90;;
22282;SDS011;11310;51.528;21.204;2023-02-02T03:30:59;7.95;;;3.30;;
22282;SDS011;11310;51.528;21.204;2023-02-02T03:33:32;7.47;;;3.10;;
22282;SDS011;11310;51.528;21.204;2023-02-02T03:36:05;7.82;;;3.13;;
22282;SDS011;11310;51.528;21.204;2023-02-02T03:38:35;6.85;;;2.50;;
22282;SDS011;11310;51.528;21.204;2023-02-02T03:41:03;10.02;;;2.92;;
22282;SDS011;11310;51.528;21.204;2023-02-02T03:43:34;8.63;;;2.88;;
22282;SDS011;11310;51.528;21.204;2023-02-02T03:46:04;8.35;;;3.15;;
22282;SDS011;11310;51.528;21.204;2023-02-02T03:48:35;8.77;;;3.08;;
22282;SDS011;11310;51.528;21.204;2023-02-02T03:53:35;7.22;;;3.22;;
22282;SDS011;11310;51.528;21.204;2023-02-02T03:56:05;8.80;;;3.83;;
22282;SDS011;11310;51.528;21.204;2023-02-02T03:58:35;9.38;;;3.13;;
22282;SDS011;11310;51.528;21.204;2023-02-02T04:01:04;5.85;;;2.63;;
22282;SDS011;11310;51.528;21.204;2023-02-02T04:03:37;7.15;;;2.92;;
22282;SDS011;11310;51.528;21.204;2023-02-02T04:06:06;11.48;;;2.97;;
22282;SDS011;11310;51.528;21.204;2023-02-02T04:08:37;8.27;;;2.90;;
22282;SDS011;11310;51.528;21.204;2023-02-02T04:11:09;11.98;;;3.10;;
22282;SDS011;11310;51.528;21.204;2023-02-02T04:13:38;9.75;;;2.95;;
22282;SDS011;11310;51.528;21.204;2023-02-02T04:16:10;9.10;;;2.83;;
22282;SDS011;11310;51.528;21.204;2023-02-02T04:18:41;9.07;;;2.95;;
22282;SDS011;11310;51.528;21.204;2023-02-02T04:21:12;10.38;;;2.75;;
22282;SDS011;11310;51.528;21.204;2023-02-02T04:23:43;9.43;;;3.00;;
22282;SDS011;11310;51.528;21.204;2023-02-02T04:26:12;8.13;;;2.97;;
22282;SDS011;11310;51.528;21.204;2023-02-02T04:28:41;9.52;;;2.90;;
22282;SDS011;11310;51.528;21.204;2023-02-02T04:31:11;8.15;;;2.63;;
22282;SDS011;11310;51.528;21.204;2023-02-02T04:33:42;11.02;;;2.70;;
22282;SDS011;11310;51.528;21.204;2023-02-02T04:36:12;9.82;;;2.40;;
22282;SDS011;11310;51.528;21.204;2023-02-02T04:38:41;6.03;;;2.67;;
22282;SDS011;11310;51.528;21.204;2023-02-02T04:41:10;8.07;;;2.70;;
22282;SDS011;11310;51.528;21.204;2023-02-02T04:43:40;9.40;;;2.70;;
22282;SDS011;11310;51.528;21.204;2023-02-02T04:46:09;10.88;;;2.50;;
22282;SDS011;11310;51.528;21.204;2023-02-02T04:48:38;10.00;;;2.90;;
22282;SDS011;11310;51.528;21.204;2023-02-02T04:51:11;6.13;;;2.33;;
22282;SDS011;11310;51.528;21.204;2023-02-02T04:53:41;10.73;;;2.58;;
22282;SDS011;11310;51.528;21.204;2023-02-02T04:56:13;8.38;;;3.03;;
22282;SDS011;11310;51.528;21.204;2023-02-02T04:58:43;7.65;;;2.30;;
22282;SDS011;11310;51.528;21.204;2023-02-02T05:01:14;6.53;;;2.38;;
22282;SDS011;11310;51.528;21.204;2023-02-02T05:03:45;5.28;;;2.05;;
22282;SDS011;11310;51.528;21.204;2023-02-02T05:06:16;7.88;;;2.30;;
22282;SDS011;11310;51.528;21.204;2023-02-02T05:08:47;11.30;;;2.70;;
22282;SDS011;11310;51.528;21.204;2023-02-02T05:11:17;8.45;;;3.30;;
22282;SDS011;11310;51.528;21.204;2023-02-02T05:13:48;8.80;;;2.58;;
22282;SDS011;11310;51.528;21.204;2023-02-02T05:16:20;8.20;;;2.35;;
22282;SDS011;11310;51.528;21.204;2023-02-02T05:18:51;11.27;;;3.05;;
22282;SDS011;11310;51.528;21.204;2023-02-02T05:21:25;6.88;;;2.55;;
22282;SDS011;11310;51.528;21.204;2023-02-02T05:23:54;10.88;;;3.03;;
22282;SDS011;11310;51.528;21.204;2023-02-02T05:26:23;10.50;;;2.83;;
22282;SDS011;11310;51.528;21.204;2023-02-02T05:28:54;8.95;;;2.50;;
22282;SDS011;11310;51.528;21.204;2023-02-02T05:31:25;9.38;;;2.42;;
22282;SDS011;11310;51.528;21.204;2023-02-02T05:33:53;12.00;;;3.10;;
22282;SDS011;11310;51.528;21.204;2023-02-02T05:36:23;9.52;;;2.50;;
22282;SDS011;11310;51.528;21.204;2023-02-02T05:38:54;5.85;;;2.30;;
22282;SDS011;11310;51.528;21.204;2023-02-02T05:41:24;11.00;;;2.80;;
22282;SDS011;11310;51.528;21.204;2023-02-02T05:43:54;10.50;;;2.80;;
22282;SDS011;11310;51.528;21.204;2023-02-02T05:46:26;10.93;;;3.00;;
22282;SDS011;11310;51.528;21.204;2023-02-02T05:48:54;6.32;;;2.28;;
22282;SDS011;11310;51.528;21.204;2023-02-02T05:51:25;15.27;;;3.00;;
22282;SDS011;11310;51.528;21.204;2023-02-02T05:53:58;8.98;;;2.75;;
22282;SDS011;11310;51.528;21.204;2023-02-02T05:56:27;11.00;;;2.90;;
22282;SDS011;11310;51.528;21.204;2023-02-02T05:58:56;10.32;;;2.35;;
22282;SDS011;11310;51.528;21.204;2023-02-02T06:01:26;7.80;;;3.10;;
22282;SDS011;11310;51.528;21.204;2023-02-02T06:03:56;8.15;;;2.10;;
22282;SDS011;11310;51.528;21.204;2023-02-02T06:06:31;10.60;;;2.60;;
22282;SDS011;11310;51.528;21.204;2023-02-02T06:09:03;11.37;;;2.63;;
22282;SDS011;11310;51.528;21.204;2023-02-02T06:11:32;10.95;;;2.53;;
22282;SDS011;11310;51.528;21.204;2023-02-02T06:14:01;10.13;;;2.35;;
22282;SDS011;11310;51.528;21.204;2023-02-02T06:16:30;13.50;;;2.55;;
22282;SDS011;11310;51.528;21.204;2023-02-02T06:19:00;8.20;;;2.33;;
22282;SDS011;11310;51.528;21.204;2023-02-02T06:22:22;9.40;;;2.20;;
22282;SDS011;11310;51.528;21.204;2023-02-02T06:24:52;10.60;;;2.40;;
22282;SDS011;11310;51.528;21.204;2023-02-02T06:27:21;8.32;;;2.38;;
22282;SDS011;11310;51.528;21.204;2023-02-02T06:29:53;9.20;;;2.17;;
22282;SDS011;11310;51.528;21.204;2023-02-02T06:32:24;8.35;;;2.50;;
22282;SDS011;11310;51.528;21.204;2023-02-02T06:34:58;8.90;;;2.45;;
22282;SDS011;11310;51.528;21.204;2023-02-02T06:37:26;5.20;;;2.22;;
22282;SDS011;11310;51.528;21.204;2023-02-02T06:39:58;6.82;;;2.28;;
22282;SDS011;11310;51.528;21.204;2023-02-02T06:42:30;5.57;;;2.08;;
22282;SDS011;11310;51.528;21.204;2023-02-02T06:44:58;7.78;;;2.47;;
22282;SDS011;11310;51.528;21.204;2023-02-02T06:47:32;9.77;;;2.13;;
22282;SDS011;11310;51.528;21.204;2023-02-02T06:50:03;9.45;;;1.88;;
22282;SDS011;11310;51.528;21.204;2023-02-02T06:52:33;7.13;;;2.05;;
22282;SDS011;11310;51.528;21.204;2023-02-02T06:55:04;5.13;;;1.85;;
22282;SDS011;11310;51.528;21.204;2023-02-02T06:57:37;5.95;;;1.77;;
22282;SDS011;11310;51.528;21.204;2023-02-02T07:03:03;6.60;;;1.80;;
22282;SDS011;11310;51.528;21.204;2023-02-02T07:05:42;6.13;;;1.70;;
22282;SDS011;11310;51.528;21.204;2023-02-02T07:08:11;6.97;;;1.98;;
22282;SDS011;11310;51.528;21.204;2023-02-02T07:11:21;5.03;;;1.80;;
22282;SDS011;11310;51.528;21.204;2023-02-02T07:13:58;5.75;;;1.60;;
22282;SDS011;11310;51.528;21.204;2023-02-02T07:16:29;5.53;;;1.50;;
22282;SDS011;11310;51.528;21.204;2023-02-02T07:19:02;6.22;;;1.48;;
22282;SDS011;11310;51.528;21.204;2023-02-02T07:21:35;6.10;;;1.90;;
22282;SDS011;11310;51.528;21.204;2023-02-02T07:24:08;5.60;;;2.10;;
22282;SDS011;11310;51.528;21.204;2023-02-02T07:26:46;6.78;;;1.88;;
22282;SDS011;11310;51.528;21.204;2023-02-02T07:29:25;5.25;;;1.58;;
22282;SDS011;11310;51.528;21.204;2023-02-02T07:32:06;6.40;;;2.15;;
22282;SDS011;11310;51.528;21.204;2023-02-02T07:34:36;6.68;;;2.05;;
22282;SDS011;11310;51.528;21.204;2023-02-02T07:37:05;6.85;;;1.70;;
22282;SDS011;11310;51.528;21.204;2023-02-02T07:39:33;4.25;;;1.77;;
22282;SDS011;11310;51.528;21.204;2023-02-02T07:42:03;5.00;;;1.90;;
22282;SDS011;11310;51.528;21.204;2023-02-02T07:44:36;3.75;;;1.45;;
22282;SDS011;11310;51.528;21.204;2023-02-02T07:47:04;4.40;;;1.63;;
22282;SDS011;11310;51.528;21.204;2023-02-02T07:49:33;6.00;;;2.20;;
22282;SDS011;11310;51.528;21.204;2023-02-02T07:52:01;3.90;;;1.55;;
22282;SDS011;11310;51.528;21.204;2023-02-02T07:54:29;4.93;;;1.67;;
22282;SDS011;11310;51.528;21.204;2023-02-02T07:56:58;8.95;;;1.83;;
22282;SDS011;11310;51.528;21.204;2023-02-02T07:59:29;9.85;;;1.83;;
22282;SDS011;11310;51.528;21.204;2023-02-02T08:01:58;6.53;;;2.17;;
22282;SDS011;11310;51.528;21.204;2023-02-02T08:04:27;4.72;;;1.50;;
22282;SDS011;11310;51.528;21.204;2023-02-02T08:06:55;5.57;;;1.92;;
22282;SDS011;11310;51.528;21.204;2023-02-02T08:09:24;4.72;;;1.67;;
22282;SDS011;11310;51.528;21.204;2023-02-02T08:11:52;5.88;;;1.80;;
22282;SDS011;11310;51.528;21.204;2023-02-02T08:14:20;4.80;;;1.60;;
22282;SDS011;11310;51.528;21.204;2023-02-02T08:16:50;4.60;;;1.38;;
22282;SDS011;11310;51.528;21.204;2023-02-02T08:19:19;3.03;;;1.50;;
22282;SDS011;11310;51.528;21.204;2023-02-02T08:21:48;4.65;;;1.70;;
22282;SDS011;11310;51.528;21.204;2023-02-02T08:24:17;6.05;;;1.70;;
22282;SDS011;11310;51.528;21.204;2023-02-02T08:26:46;7.93;;;2.13;;
22282;SDS011;11310;51.528;21.204;2023-02-02T08:29:15;4.80;;;1.70;;
22282;SDS011;11310;51.528;21.204;2023-02-02T08:31:44;4.63;;;1.50;;
22282;SDS011;11310;51.528;21.204;2023-02-02T08:34:14;4.45;;;1.50;;
22282;SDS011;11310;51.528;21.204;2023-02-02T08:36:43;6.25;;;2.20;;
22282;SDS011;11310;51.528;21.204;2023-02-02T08:39:12;5.57;;;1.60;;
22282;SDS011;11310;51.528;21.204;2023-02-02T08:41:40;6.05;;;1.80;;
22282;SDS011;11310;51.528;21.204;2023-02-02T08:44:11;3.63;;;1.77;;
22282;SDS011;11310;51.528;21.204;2023-02-02T08:46:41;5.55;;;1.65;;
22282;SDS011;11310;51.528;21.204;2023-02-02T08:49:10;4.10;;;1.80;;
22282;SDS011;11310;51.528;21.204;2023-02-02T08:51:41;5.30;;;2.10;;
22282;SDS011;11310;51.528;21.204;2023-02-02T08:54:09;4.25;;;1.70;;
22282;SDS011;11310;51.528;21.204;2023-02-02T08:56:38;5.82;;;1.60;;
22282;SDS011;11310;51.528;21.204;2023-02-02T08:59:06;5.63;;;1.55;;
22282;SDS011;11310;51.528;21.204;2023-02-02T09:01:35;3.80;;;1.42;;
22282;SDS011;11310;51.528;21.204;2023-02-02T09:04:04;3.75;;;1.83;;
22282;SDS011;11310;51.528;21.204;2023-02-02T09:06:34;4.78;;;1.50;;
22282;SDS011;11310;51.528;21.204;2023-02-02T09:09:07;4.13;;;1.45;;
22282;SDS011;11310;51.528;21.204;2023-02-02T09:11:38;2.55;;;1.10;;
22282;SDS011;11310;51.528;21.204;2023-02-02T09:14:09;4.93;;;1.30;;
22282;SDS011;11310;51.528;21.204;2023-02-02T09:16:39;3.65;;;1.30;;
22282;SDS011;11310;51.528;21.204;2023-02-02T09:19:09;3.47;;;1.30;;
22282;SDS011;11310;51.528;21.204;2023-02-02T09:21:37;3.47;;;1.40;;
22282;SDS011;11310;51.528;21.204;2023-02-02T09:24:08;1.80;;;1.13;;
22282;SDS011;11310;51.528;21.204;2023-02-02T09:26:38;3.33;;;1.20;;
22282;SDS011;11310;51.528;21.204;2023-02-02T09:29:09;2.00;;;1.23;;
22282;SDS011;11310;51.528;21.204;2023-02-02T09:31:39;2.28;;;1.05;;
22282;SDS011;11310;51.528;21.204;2023-02-02T09:34:10;4.25;;;1.75;;
22282;SDS011;11310;51.528;21.204;2023-02-02T09:39:11;7.35;;;2.40;;
22282;SDS011;11310;51.528;21.204;2023-02-02T09:45:07;8.45;;;2.22;;
22282;SDS011;11310;51.528;21.204;2023-02-02T09:47:47;9.35;;;3.33;;
22282;SDS011;11310;51.528;21.204;2023-02-02T09:53:17;6.40;;;2.15;;
22282;SDS011;11310;51.528;21.204;2023-02-02T09:55:53;5.50;;;1.98;;
22282;SDS011;11310;51.528;21.204;2023-02-02T09:58:30;3.45;;;1.70;;
22282;SDS011;11310;51.528;21.204;2023-02-02T10:01:03;6.38;;;2.55;;
22282;SDS011;11310;51.528;21.204;2023-02-02T10:03:36;4.30;;;1.85;;
22282;SDS011;11310;51.528;21.204;2023-02-02T10:06:15;5.18;;;1.95;;
22282;SDS011;11310;51.528;21.204;2023-02-02T10:08:54;5.00;;;1.70;;
22282;SDS011;11310;51.528;21.204;2023-02-02T10:11:31;3.33;;;1.70;;
22282;SDS011;11310;51.528;21.204;2023-02-02T10:14:05;3.00;;;1.83;;
22282;SDS011;11310;51.528;21.204;2023-02-02T10:16:47;3.72;;;1.80;;
22282;SDS011;11310;51.528;21.204;2023-02-02T10:19:19;2.65;;;1.38;;
22282;SDS011;11310;51.528;21.204;2023-02-02T10:21:58;4.28;;;1.73;;
22282;SDS011;11310;51.528;21.204;2023-02-02T10:24:32;4.93;;;1.65;;
22282;SDS011;11310;51.528;21.204;2023-02-02T10:27:03;5.03;;;2.20;;
22282;SDS011;11310;51.528;21.204;2023-02-02T10:29:38;4.40;;;1.85;;
22282;SDS011;11310;51.528;21.204;2023-02-02T10:32:17;6.88;;;2.40;;
22282;SDS011;11310;51.528;21.204;2023-02-02T10:34:59;4.70;;;1.95;;
22282;SDS011;11310;51.528;21.204;2023-02-02T10:37:41;4.90;;;2.05;;
22282;SDS011;11310;51.528;21.204;2023-02-02T10:40:20;6.50;;;2.10;;
22282;SDS011;11310;51.528;21.204;2023-02-02T10:43:18;2.97;;;1.63;;
22282;SDS011;11310;51.528;21.204;2023-02-02T10:46:17;6.68;;;1.90;;
22282;SDS011;11310;51.528;21.204;2023-02-02T10:48:50;4.65;;;1.70;;
22282;SDS011;11310;51.528;21.204;2023-02-02T10:51:29;2.88;;;1.52;;
22282;SDS011;11310;51.528;21.204;2023-02-02T10:53:58;6.30;;;1.42;;
22282;SDS011;11310;51.528;21.204;2023-02-02T10:56:32;2.05;;;1.35;;
22282;SDS011;11310;51.528;21.204;2023-02-02T10:59:06;3.40;;;1.50;;
22282;SDS011;11310;51.528;21.204;2023-02-02T11:01:41;3.00;;;1.50;;
22282;SDS011;11310;51.528;21.204;2023-02-02T11:04:10;4.13;;;1.80;;
22282;SDS011;11310;51.528;21.204;2023-02-02T11:07:08;2.88;;;1.52;;
22282;SDS011;11310;51.528;21.204;2023-02-02T11:09:39;2.25;;;1.45;;
22282;SDS011;11310;51.528;21.204;2023-02-02T11:12:12;3.75;;;1.90;;
22282;SDS011;11310;51.528;21.204;2023-02-02T11:14:50;2.50;;;1.48;;
22282;SDS011;11310;51.528;21.204;2023-02-02T11:17:23;3.15;;;1.85;;
22282;SDS011;11310;51.528;21.204;2023-02-02T11:19:53;4.13;;;2.15;;
22282;SDS011;11310;51.528;21.204;2023-02-02T11:22:25;4.38;;;1.80;;
22282;SDS011;11310;51.528;21.204;2023-02-02T11:24:59;5.25;;;2.22;;
22282;SDS011;11310;51.528;21.204;2023-02-02T11:27:30;3.80;;;2.30;;
22282;SDS011;11310;51.528;21.204;2023-02-02T11:30:10;3.65;;;1.90;;
22282;SDS011;11310;51.528;21.204;2023-02-02T11:32:48;4.95;;;1.80;;
22282;SDS011;11310;51.528;21.204;2023-02-02T11:35:18;4.22;;;2.17;;
22282;SDS011;11310;51.528;21.204;2023-02-02T11:37:53;5.85;;;2.45;;
22282;SDS011;11310;51.528;21.204;2023-02-02T11:40:28;6.65;;;2.58;;
22282;SDS011;11310;51.528;21.204;2023-02-02T11:42:59;5.18;;;2.70;;
22282;SDS011;11310;51.528;21.204;2023-02-02T11:45:33;5.45;;;2.70;;
22282;SDS011;11310;51.528;21.204;2023-02-02T11:48:05;5.40;;;2.60;;
22282;SDS011;11310;51.528;21.204;2023-02-02T11:50:44;7.88;;;2.53;;
22282;SDS011;11310;51.528;21.204;2023-02-02T11:53:21;6.28;;;2.30;;
22282;SDS011;11310;51.528;21.204;2023-02-02T11:55:53;5.47;;;2.33;;
22282;SDS011;11310;51.528;21.204;2023-02-02T11:58:23;5.25;;;2.35;;
22282;SDS011;11310;51.528;21.204;2023-02-02T12:00:58;4.32;;;2.15;;
22282;SDS011;11310;51.528;21.204;2023-02-02T12:03:29;5.95;;;2.25;;
22282;SDS011;11310;51.528;21.204;2023-02-02T12:06:00;6.10;;;2.60;;
22282;SDS011;11310;51.528;21.204;2023-02-02T12:08:45;3.83;;;2.20;;
22282;SDS011;11310;51.528;21.204;2023-02-02T12:11:27;3.92;;;2.20;;
22282;SDS011;11310;51.528;21.204;2023-02-02T12:14:12;3.35;;;1.80;;
22282;SDS011;11310;51.528;21.204;2023-02-02T12:16:54;2.72;;;1.70;;
22282;SDS011;11310;51.528;21.204;2023-02-02T12:19:40;4.65;;;2.28;;
22282;SDS011;11310;51.528;21.204;2023-02-02T12:22:29;4.68;;;1.90;;
22282;SDS011;11310;51.528;21.204;2023-02-02T12:25:16;3.38;;;2.03;;
22282;SDS011;11310;51.528;21.204;2023-02-02T12:28:02;2.47;;;1.58;;
22282;SDS011;11310;51.528;21.204;2023-02-02T12:30:42;4.47;;;2.45;;
22282;SDS011;11310;51.528;21.204;2023-02-02T12:33:22;4.07;;;2.20;;
22282;SDS011;11310;51.528;21.204;2023-02-02T12:41:48;3.78;;;2.10;;
22282;SDS011;11310;51.528;21.204;2023-02-02T12:44:38;5.15;;;2.00;;
22282;SDS011;11310;51.528;21.204;2023-02-02T12:47:17;5.18;;;2.45;;
22282;SDS011;11310;51.528;21.204;2023-02-02T12:50:06;3.50;;;1.90;;
22282;SDS011;11310;51.528;21.204;2023-02-02T12:52:55;3.78;;;1.90;;
22282;SDS011;11310;51.528;21.204;2023-02-02T12:55:40;3.67;;;2.10;;
22282;SDS011;11310;51.528;21.204;2023-02-02T12:58:14;3.75;;;2.00;;
22282;SDS011;11310;51.528;21.204;2023-02-02T13:03:55;3.85;;;2.13;;
22282;SDS011;11310;51.528;21.204;2023-02-02T13:09:37;5.55;;;2.15;;
22282;SDS011;11310;51.528;21.204;2023-02-02T13:12:13;4.65;;;2.30;;
22282;SDS011;11310;51.528;21.204;2023-02-02T13:14:47;3.92;;;2.35;;
22282;SDS011;11310;51.528;21.204;2023-02-02T13:17:18;5.20;;;2.50;;
22282;SDS011;11310;51.528;21.204;2023-02-02T13:19:53;4.75;;;2.42;;
22282;SDS011;11310;51.528;21.204;2023-02-02T13:22:26;4.63;;;2.70;;
22282;SDS011;11310;51.528;21.204;2023-02-02T13:24:59;7.25;;;2.58;;
22282;SDS011;11310;51.528;21.204;2023-02-02T13:27:35;7.10;;;2.80;;
22282;SDS011;11310;51.528;21.204;2023-02-02T13:30:09;6.15;;;2.85;;
22282;SDS011;11310;51.528;21.204;2023-02-02T13:32:45;5.30;;;2.50;;
22282;SDS011;11310;51.528;21.204;2023-02-02T13:35:17;5.13;;;2.20;;
22282;SDS011;11310;51.528;21.204;2023-02-02T13:37:49;3.53;;;2.00;;
22282;SDS011;11310;51.528;21.204;2023-02-02T13:40:24;5.82;;;2.40;;
22282;SDS011;11310;51.528;21.204;2023-02-02T13:43:01;5.15;;;2.25;;
22282;SDS011;11310;51.528;21.204;2023-02-02T13:45:41;6.80;;;2.55;;
22282;SDS011;11310;51.528;21.204;2023-02-02T13:48:18;6.03;;;2.50;;
22282;SDS011;11310;51.528;21.204;2023-02-02T13:50:58;4.50;;;2.40;;
22282;SDS011;11310;51.528;21.204;2023-02-02T13:53:46;5.65;;;2.22;;
22282;SDS011;11310;51.528;21.204;2023-02-02T13:56:37;6.22;;;2.40;;
22282;SDS011;11310;51.528;21.204;2023-02-02T13:59:17;3.78;;;2.00;;
22282;SDS011;11310;51.528;21.204;2023-02-02T14:01:58;3.28;;;1.83;;
22282;SDS011;11310;51.528;21.204;2023-02-02T14:04:28;2.55;;;1.70;;
22282;SDS011;11310;51.528;21.204;2023-02-02T14:06:58;3.63;;;1.73;;
22282;SDS011;11310;51.528;21.204;2023-02-02T14:09:31;3.42;;;1.67;;
22282;SDS011;11310;51.528;21.204;2023-02-02T14:12:04;5.13;;;1.50;;
22282;SDS011;11310;51.528;21.204;2023-02-02T14:14:37;3.70;;;1.65;;
22282;SDS011;11310;51.528;21.204;2023-02-02T14:26:20;4.13;;;1.70;;
22282;SDS011;11310;51.528;21.204;2023-02-02T14:32:28;3.30;;;1.35;;
22282;SDS011;11310;51.528;21.204;2023-02-02T14:38:02;2.95;;;1.20;;
22282;SDS011;11310;51.528;21.204;2023-02-02T14:40:42;3.30;;;1.30;;
22282;SDS011;11310;51.528;21.204;2023-02-02T14:43:17;2.80;;;1.20;;
22282;SDS011;11310;51.528;21.204;2023-02-02T14:46:20;2.97;;;1.50;;
22282;SDS011;11310;51.528;21.204;2023-02-02T14:49:06;2.92;;;1.20;;
22282;SDS011;11310;51.528;21.204;2023-02-02T14:51:49;6.57;;;1.73;;
22282;SDS011;11310;51.528;21.204;2023-02-02T14:54:22;5.22;;;1.38;;
22282;SDS011;11310;51.528;21.204;2023-02-02T14:56:55;2.80;;;1.17;;
22282;SDS011;11310;51.528;21.204;2023-02-02T14:59:28;2.85;;;1.17;;
22282;SDS011;11310;51.528;21.204;2023-02-02T15:02:05;5.13;;;1.70;;
22282;SDS011;11310;51.528;21.204;2023-02-02T15:04:41;2.22;;;1.38;;
22282;SDS011;11310;51.528;21.204;2023-02-02T15:10:04;4.38;;;1.58;;
22282;SDS011;11310;51.528;21.204;2023-02-02T15:12:38;3.22;;;1.42;;
22282;SDS011;11310;51.528;21.204;2023-02-02T15:15:14;4.57;;;1.92;;
22282;SDS011;11310;51.528;21.204;2023-02-02T15:18:01;4.97;;;2.00;;
22282;SDS011;11310;51.528;21.204;2023-02-02T15:20:35;5.65;;;1.77;;
22282;SDS011;11310;51.528;21.204;2023-02-02T15:23:14;6.38;;;2.40;;
22282;SDS011;11310;51.528;21.204;2023-02-02T15:25:52;5.63;;;2.30;;
22282;SDS011;11310;51.528;21.204;2023-02-02T15:28:24;8.57;;;2.60;;
22282;SDS011;11310;51.528;21.204;2023-02-02T15:31:04;7.82;;;2.50;;
22282;SDS011;11310;51.528;21.204;2023-02-02T15:33:42;4.45;;;2.10;;
22282;SDS011;11310;51.528;21.204;2023-02-02T15:36:12;6.25;;;2.42;;
22282;SDS011;11310;51.528;21.204;2023-02-02T15:38:46;4.90;;;2.28;;
22282;SDS011;11310;51.528;21.204;2023-02-02T15:41:19;4.90;;;2.17;;
22282;SDS011;11310;51.528;21.204;2023-02-02T15:43:50;6.80;;;2.28;;
22282;SDS011;11310;51.528;21.204;2023-02-02T15:46:19;5.93;;;2.30;;
22282;SDS011;11310;51.528;21.204;2023-02-02T15:52:01;6.53;;;2.50;;
22282;SDS011;11310;51.528;21.204;2023-02-02T15:54:47;4.80;;;2.33;;
22282;SDS011;11310;51.528;21.204;2023-02-02T16:00:21;7.72;;;2.90;;
22282;SDS011;11310;51.528;21.204;2023-02-02T16:02:51;8.35;;;2.63;;
22282;SDS011;11310;51.528;21.204;2023-02-02T16:05:37;5.88;;;2.83;;